Time;durP1;ratioP1;P1;durP2;ratioP2;P2;SDS_P1;SDS_P2;PMS_P1;PMS_P2;Temp;Humidity;BMP_temperature;BMP_pressure;BME280_temperature;BME280_humidity;BME280_pressure;Samples;Min_cycle;Max_cycle;Signal;HPM_P1;HPM_P2
2023/04/23 00:02:15;;;;;;;21.38;13.32;;;8.40;99.90;;;;;;5056583;28;20045;-71
2023/04/23 00:04:51;;;;;;;24.25;14.43;;;8.30;99.90;;;;;;5055263;28;20128;-72
2023/04/23 00:07:20;;;;;;;23.67;13.85;;;8.40;99.90;;;;;;5056604;28;20044;-71
2023/04/23 00:09:48;;;;;;;24.30;13.80;;;8.40;99.90;;;;;;5056219;28;20611;-74
2023/04/23 00:12:14;;;;;;;22.70;14.40;;;8.30;99.90;;;;;;5056701;28;20482;-72
2023/04/23 00:14:40;;;;;;;23.27;14.23;;;8.40;99.90;;;;;;5056996;28;20090;-71
2023/04/23 00:17:06;;;;;;;25.58;15.05;;;8.30;99.90;;;;;;5038861;28;20140;-72
2023/04/23 00:19:31;;;;;;;23.80;13.77;;;8.30;99.90;;;;;;5056387;28;20385;-72
2023/04/23 00:21:57;;;;;;;23.75;13.23;;;8.30;99.90;;;;;;5055252;28;20041;-73
2023/04/23 00:24:23;;;;;;;22.70;13.98;;;8.20;99.90;;;;;;5054985;28;20057;-72
2023/04/23 00:26:48;;;;;;;22.55;13.63;;;8.20;99.90;;;;;;5056208;28;20049;-72
2023/04/23 00:29:14;;;;;;;23.45;13.65;;;8.20;99.90;;;;;;5055431;28;20048;-72
2023/04/23 00:31:40;;;;;;;25.60;15.70;;;8.20;99.90;;;;;;5056105;28;20044;-72
2023/04/23 00:34:05;;;;;;;25.27;14.38;;;8.10;99.90;;;;;;5055152;28;20052;-73
2023/04/23 00:36:31;;;;;;;25.98;15.95;;;8.10;99.90;;;;;;5054797;28;20080;-73
2023/04/23 00:38:57;;;;;;;26.60;15.05;;;8.00;99.90;;;;;;5054745;28;20077;-72
2023/04/23 00:41:23;;;;;;;24.63;15.27;;;8.00;99.90;;;;;;5056389;28;20041;-72
2023/04/23 00:43:51;;;;;;;27.73;15.43;;;8.00;99.90;;;;;;5055936;28;20053;-72
2023/04/23 00:46:17;;;;;;;25.50;15.65;;;8.00;99.90;;;;;;5055812;28;20132;-72
2023/04/23 00:48:45;;;;;;;27.08;15.60;;;8.10;99.90;;;;;;5056065;28;20124;-72
2023/04/23 00:51:11;;;;;;;27.90;15.32;;;8.10;99.90;;;;;;5055831;28;20049;-72
2023/04/23 00:53:36;;;;;;;28.80;16.30;;;8.10;99.90;;;;;;5054691;28;20049;-71
2023/04/23 00:56:04;;;;;;;32.28;17.10;;;8.10;99.90;;;;;;5055721;28;20056;-72
2023/04/23 00:58:30;;;;;;;27.80;16.10;;;8.10;99.90;;;;;;5054607;28;20059;-72
2023/04/23 01:00:57;;;;;;;30.98;16.77;;;8.00;99.90;;;;;;5056087;28;20179;-73
2023/04/23 01:03:24;;;;;;;29.55;17.55;;;8.00;99.90;;;;;;5054320;28;20056;-72
2023/04/23 01:05:50;;;;;;;30.50;17.15;;;7.90;99.90;;;;;;5055564;28;20055;-72
2023/04/23 01:08:17;;;;;;;31.95;16.88;;;7.90;99.90;;;;;;5055428;28;20049;-72
2023/04/23 01:10:44;;;;;;;30.67;18.35;;;7.90;99.90;;;;;;5054716;28;20087;-74
2023/04/23 01:13:12;;;;;;;33.20;17.65;;;7.90;99.90;;;;;;5055398;28;20045;-72
2023/04/23 01:15:38;;;;;;;31.25;17.77;;;7.80;99.90;;;;;;5055330;28;20080;-72
2023/04/23 01:18:06;;;;;;;34.13;19.23;;;7.80;99.90;;;;;;5055196;28;20437;-72
2023/04/23 01:20:33;;;;;;;34.65;20.25;;;7.80;99.90;;;;;;5055228;28;20045;-72
2023/04/23 01:22:59;;;;;;;31.88;18.17;;;7.80;99.90;;;;;;5053864;28;20049;-72
2023/04/23 01:25:25;;;;;;;35.30;20.30;;;7.70;99.90;;;;;;5055521;28;20393;-71
2023/04/23 01:27:51;;;;;;;33.60;17.83;;;7.70;99.90;;;;;;5055024;28;20047;-73
2023/04/23 01:30:17;;;;;;;35.92;21.35;;;7.70;99.90;;;;;;5055120;28;20048;-72
2023/04/23 01:32:43;;;;;;;36.10;19.77;;;7.60;99.90;;;;;;5054984;28;20436;-72
2023/04/23 01:35:09;;;;;;;42.83;22.67;;;7.60;99.90;;;;;;5054932;28;20041;-72
2023/04/23 01:37:37;;;;;;;40.47;21.85;;;7.60;99.90;;;;;;5054922;28;20401;-72
2023/04/23 01:40:03;;;;;;;43.10;23.13;;;7.60;99.90;;;;;;5054652;28;20041;-72
2023/04/23 01:42:28;;;;;;;41.85;22.27;;;7.60;99.90;;;;;;5053843;28;20044;-72
2023/04/23 01:44:54;;;;;;;42.35;21.27;;;7.60;99.90;;;;;;5054706;28;20063;-72
2023/04/23 01:47:20;;;;;;;41.22;21.95;;;7.50;99.90;;;;;;5055230;28;20094;-72
2023/04/23 01:49:46;;;;;;;45.13;21.42;;;7.50;99.90;;;;;;5054682;28;20049;-74
2023/04/23 01:52:11;;;;;;;41.40;21.38;;;7.50;99.90;;;;;;5054568;28;20132;-71
2023/04/23 01:54:37;;;;;;;38.83;20.02;;;7.40;99.90;;;;;;5054556;28;20045;-72
2023/04/23 01:57:03;;;;;;;44.65;21.92;;;7.40;99.90;;;;;;5054472;28;20099;-73
2023/04/23 01:59:29;;;;;;;43.58;22.23;;;7.40;99.90;;;;;;5054479;28;20049;-72
2023/04/23 02:01:54;;;;;;;42.83;21.70;;;7.30;99.90;;;;;;5053217;28;20041;-73
2023/04/23 02:04:20;;;;;;;45.72;22.65;;;7.30;99.90;;;;;;5054905;28;20045;-72
2023/04/23 02:06:50;;;;;;;45.83;23.17;;;7.30;99.90;;;;;;5055094;28;20052;-72
2023/04/23 02:09:16;;;;;;;48.63;24.42;;;7.30;99.90;;;;;;5054563;28;20106;-72
2023/04/23 02:11:41;;;;;;;47.28;23.83;;;7.30;99.90;;;;;;5054181;28;20040;-72
2023/04/23 02:14:08;;;;;;;54.75;26.23;;;7.30;99.90;;;;;;5054312;28;20113;-72
2023/04/23 02:16:34;;;;;;;52.88;26.48;;;7.30;99.90;;;;;;5053899;28;20477;-72
2023/04/23 02:19:00;;;;;;;46.35;24.08;;;7.30;99.90;;;;;;5054051;28;20052;-72
2023/04/23 02:21:26;;;;;;;51.95;26.77;;;7.30;99.90;;;;;;5053864;28;20045;-72
2023/04/23 02:23:52;;;;;;;49.65;25.40;;;7.20;99.90;;;;;;5053880;28;20057;-72
2023/04/23 02:26:18;;;;;;;51.53;27.60;;;7.20;99.90;;;;;;5054222;28;20055;-72
2023/04/23 02:28:45;;;;;;;58.50;28.05;;;7.20;99.90;;;;;;5053762;28;20053;-72
2023/04/23 02:31:10;;;;;;;56.90;28.38;;;7.20;99.90;;;;;;5053868;28;20048;-72
2023/04/23 02:33:36;;;;;;;55.15;26.05;;;7.20;99.90;;;;;;5053345;28;20110;-72
2023/04/23 02:36:02;;;;;;;56.75;27.95;;;7.20;99.90;;;;;;5052651;28;20044;-73
2023/04/23 02:38:28;;;;;;;58.60;27.77;;;7.20;99.90;;;;;;5052988;28;20047;-72
2023/04/23 02:40:53;;;;;;;58.25;28.13;;;7.30;99.90;;;;;;5053028;28;20041;-74
2023/04/23 02:43:19;;;;;;;57.53;28.95;;;7.30;99.90;;;;;;5052712;28;20048;-72
2023/04/23 02:45:45;;;;;;;59.60;27.35;;;7.30;99.90;;;;;;5053763;28;20060;-72
2023/04/23 02:48:11;;;;;;;60.00;28.02;;;7.20;99.90;;;;;;5052643;28;20041;-72
2023/04/23 02:50:38;;;;;;;55.90;27.77;;;7.30;99.90;;;;;;5053658;28;20045;-72
2023/04/23 02:53:04;;;;;;;58.42;27.73;;;7.20;99.90;;;;;;5036930;28;20048;-74
2023/04/23 02:55:33;;;;;;;58.33;27.25;;;7.20;99.90;;;;;;5053570;28;20052;-72
2023/04/23 02:57:59;;;;;;;58.03;29.08;;;7.10;99.90;;;;;;5053461;28;20056;-72
2023/04/23 03:00:26;;;;;;;51.42;26.25;;;7.10;99.90;;;;;;5052851;28;20056;-72
2023/04/23 03:02:51;;;;;;;56.70;27.65;;;7.10;99.90;;;;;;5053476;28;20053;-72
2023/04/23 03:05:17;;;;;;;54.55;25.42;;;7.00;99.90;;;;;;5052254;28;20045;-73
2023/04/23 03:07:43;;;;;;;51.05;26.65;;;7.00;99.90;;;;;;5053419;28;20049;-72
2023/04/23 03:10:09;;;;;;;57.38;27.80;;;7.00;99.90;;;;;;5053929;28;20045;-72
2023/04/23 03:12:34;;;;;;;55.35;26.13;;;7.00;99.90;;;;;;5052333;28;20051;-72
2023/04/23 03:15:00;;;;;;;57.00;29.15;;;7.10;99.90;;;;;;5053378;28;20041;-72
2023/04/23 03:17:26;;;;;;;55.65;28.65;;;7.10;99.90;;;;;;5053599;28;20051;-72
2023/04/23 03:19:52;;;;;;;55.58;27.08;;;7.00;99.90;;;;;;5053249;28;20045;-71
2023/04/23 03:22:17;;;;;;;57.65;28.50;;;7.10;99.90;;;;;;5053200;28;20071;-72
2023/04/23 03:24:43;;;;;;;57.75;28.15;;;7.10;99.90;;;;;;5053171;28;20064;-72
2023/04/23 03:27:09;;;;;;;61.55;29.80;;;7.10;99.90;;;;;;5054669;28;20455;-72
2023/04/23 03:29:35;;;;;;;58.97;29.17;;;7.10;99.90;;;;;;5056031;28;20041;-72
2023/04/23 03:32:01;;;;;;;58.78;28.63;;;7.10;99.90;;;;;;5055942;28;20053;-74
2023/04/23 03:34:26;;;;;;;55.65;26.90;;;7.10;99.90;;;;;;5056825;28;20052;-73
2023/04/23 03:36:52;;;;;;;50.33;26.38;;;7.10;99.90;;;;;;5057525;28;20045;-71
2023/04/23 03:39:18;;;;;;;51.28;26.80;;;7.00;99.90;;;;;;5056032;28;20428;-72
2023/04/23 03:41:43;;;;;;;60.63;28.70;;;7.00;99.90;;;;;;5057123;28;20485;-72
2023/04/23 03:44:09;;;;;;;55.45;26.67;;;7.00;99.90;;;;;;5056698;28;20049;-71
2023/04/23 03:46:35;;;;;;;54.90;27.55;;;7.10;99.90;;;;;;5057304;28;20052;-72
2023/04/23 03:49:00;;;;;;;55.40;28.50;;;7.10;99.90;;;;;;5039399;28;20381;-72
2023/04/23 03:51:27;;;;;;;56.92;29.10;;;7.10;99.90;;;;;;5055890;28;20049;-73
2023/04/23 03:53:52;;;;;;;60.53;28.70;;;7.10;99.90;;;;;;5055815;28;20084;-72
2023/04/23 03:56:18;;;;;;;52.53;28.15;;;7.10;99.90;;;;;;5056610;28;20092;-72
2023/04/23 03:58:44;;;;;;;52.72;27.25;;;7.20;99.90;;;;;;5056686;28;20056;-72
2023/04/23 04:01:09;;;;;;;48.90;25.67;;;7.20;99.90;;;;;;5056058;28;20040;-71
2023/04/23 04:03:35;;;;;;;48.80;26.42;;;7.20;99.90;;;;;;5038763;28;20079;-72
2023/04/23 04:06:01;;;;;;;63.17;26.90;;;7.20;99.90;;;;;;5057237;28;20518;-71
2023/04/23 04:08:28;;;;;;;44.53;24.17;;;7.20;99.90;;;;;;5056442;28;20060;-71
2023/04/23 04:10:54;;;;;;;45.10;24.05;;;7.20;99.90;;;;;;5056816;28;20444;-71
2023/04/23 04:13:20;;;;;;;42.78;22.67;;;7.10;99.90;;;;;;5055164;28;20053;-71
2023/04/23 04:15:46;;;;;;;49.72;25.67;;;7.10;99.90;;;;;;5056416;28;20084;-72
2023/04/23 04:18:12;;;;;;;49.80;26.10;;;7.10;99.90;;;;;;5056310;28;20091;-71
2023/04/23 04:20:37;;;;;;;42.72;23.73;;;7.10;99.90;;;;;;5055329;28;20140;-72
2023/04/23 04:23:03;;;;;;;52.47;26.83;;;7.10;99.90;;;;;;5055844;28;20052;-72
2023/04/23 04:25:29;;;;;;;54.08;26.65;;;7.10;99.90;;;;;;5021466;28;20053;-72
2023/04/23 04:27:56;;;;;;;54.55;27.08;;;7.10;99.90;;;;;;5054762;28;20136;-71
2023/04/23 04:30:23;;;;;;;49.58;25.38;;;7.10;99.90;;;;;;5056618;28;20053;-71
2023/04/23 04:32:49;;;;;;;57.13;29.10;;;7.10;99.90;;;;;;5056117;28;20140;-72
2023/04/23 04:35:15;;;;;;;56.65;29.70;;;7.10;99.90;;;;;;5056425;28;20123;-71
2023/04/23 04:37:42;;;;;;;58.25;29.67;;;7.10;99.90;;;;;;5056109;28;20080;-72
2023/04/23 04:40:10;;;;;;;57.88;28.50;;;7.20;99.90;;;;;;5054760;28;20045;-71
2023/04/23 04:42:38;;;;;;;59.63;28.98;;;7.20;99.90;;;;;;5056219;28;20458;-72
2023/04/23 04:45:04;;;;;;;59.47;29.92;;;7.20;99.90;;;;;;5056005;28;20393;-71
2023/04/23 04:47:30;;;;;;;53.88;27.63;;;7.20;99.90;;;;;;5055188;28;20049;-74
2023/04/23 04:49:56;;;;;;;61.08;29.70;;;7.30;99.90;;;;;;5038996;28;20044;-72
2023/04/23 04:52:23;;;;;;;59.38;29.65;;;7.20;99.90;;;;;;5055642;28;20044;-71
2023/04/23 04:54:49;;;;;;;62.28;29.13;;;7.30;99.90;;;;;;5055712;28;20049;-72
2023/04/23 04:57:15;;;;;;;56.83;28.90;;;7.30;99.90;;;;;;5054661;28;20391;-72
2023/04/23 04:59:40;;;;;;;59.70;29.27;;;7.30;99.90;;;;;;5055530;28;20049;-72
2023/04/23 05:02:06;;;;;;;61.15;29.70;;;7.30;99.90;;;;;;5054620;28;20409;-75
2023/04/23 05:04:32;;;;;;;59.33;29.55;;;7.40;99.90;;;;;;5054573;28;20128;-71
2023/04/23 05:06:58;;;;;;;63.88;29.73;;;7.40;99.90;;;;;;5055483;28;20052;-71
2023/04/23 05:09:24;;;;;;;59.80;29.35;;;7.50;99.90;;;;;;5054551;28;20393;-72
2023/04/23 05:11:50;;;;;;;65.13;30.23;;;7.50;99.90;;;;;;5055650;28;20056;-72
2023/04/23 05:14:16;;;;;;;63.83;29.23;;;7.70;99.90;;;;;;5055001;28;20049;-71
2023/04/23 05:16:42;;;;;;;64.53;30.48;;;7.80;99.90;;;;;;5056036;28;20413;-72
2023/04/23 05:19:07;;;;;;;58.67;29.10;;;8.00;99.90;;;;;;5055178;28;20499;-71
2023/04/23 05:21:33;;;;;;;60.30;29.20;;;8.10;99.90;;;;;;5054122;28;20044;-71
2023/04/23 05:23:59;;;;;;;60.63;30.67;;;8.20;99.90;;;;;;5055199;28;20060;-72
2023/04/23 05:26:24;;;;;;;61.25;29.83;;;8.20;99.90;;;;;;5037790;28;20457;-72
2023/04/23 05:28:50;;;;;;;63.92;30.88;;;8.20;99.90;;;;;;5055369;28;20044;-72
2023/04/23 05:31:16;;;;;;;62.42;28.45;;;8.30;99.90;;;;;;5037516;28;20041;-72
2023/04/23 05:33:43;;;;;;;55.75;28.20;;;8.30;99.90;;;;;;5054939;28;20092;-71
2023/04/23 05:36:09;;;;;;;63.03;30.23;;;8.40;99.90;;;;;;5054226;28;20087;-72
2023/04/23 05:38:35;;;;;;;57.78;28.70;;;8.40;99.90;;;;;;5054733;28;20470;-71
2023/04/23 05:41:01;;;;;;;55.33;28.90;;;8.40;99.90;;;;;;5054834;28;20045;-72
2023/04/23 05:43:27;;;;;;;52.85;28.75;;;8.50;99.90;;;;;;5054834;28;20386;-72
2023/04/23 05:45:52;;;;;;;56.90;29.13;;;8.50;99.90;;;;;;5054536;28;20045;-73
2023/04/23 05:48:18;;;;;;;52.72;27.98;;;8.50;99.90;;;;;;5053707;28;20055;-72
2023/04/23 05:50:44;;;;;;;59.53;29.83;;;8.60;99.90;;;;;;5053006;28;20502;-71
2023/04/23 05:53:10;;;;;;;51.47;25.55;;;8.60;99.90;;;;;;5053482;28;20067;-72
2023/04/23 05:55:35;;;;;;;52.67;25.75;;;8.60;99.90;;;;;;5054672;28;20068;-72
2023/04/23 05:58:01;;;;;;;50.25;26.85;;;8.60;99.90;;;;;;5054232;28;20056;-71
2023/04/23 06:00:27;;;;;;;54.55;28.60;;;8.70;99.90;;;;;;5053111;28;20459;-71
2023/04/23 06:02:53;;;;;;;52.40;27.95;;;8.60;99.90;;;;;;5054495;28;20049;-71
2023/04/23 06:05:19;;;;;;;52.63;26.75;;;8.70;99.90;;;;;;5054939;28;20056;-72
2023/04/23 06:07:44;;;;;;;54.50;27.98;;;8.70;99.90;;;;;;5054048;28;20490;-72
2023/04/23 06:10:11;;;;;;;52.92;28.40;;;8.70;99.90;;;;;;5053588;28;20059;-72
2023/04/23 06:12:40;;;;;;;53.10;27.10;;;8.60;99.90;;;;;;5054226;28;20049;-72
2023/04/23 06:15:07;;;;;;;52.15;28.48;;;8.70;99.90;;;;;;5054186;28;20214;-71
2023/04/23 06:17:34;;;;;;;56.08;28.30;;;8.70;99.90;;;;;;5054119;28;20041;-71
2023/04/23 06:20:00;;;;;;;55.55;27.90;;;8.90;99.90;;;;;;5053691;28;20056;-72
2023/04/23 06:22:26;;;;;;;53.28;26.70;;;8.90;99.90;;;;;;5053023;28;20397;-71
2023/04/23 06:24:52;;;;;;;50.72;25.17;;;9.00;99.90;;;;;;5052835;28;20404;-78
2023/04/23 06:27:17;;;;;;;45.53;24.70;;;9.10;99.90;;;;;;5054045;28;20044;-81
2023/04/23 06:29:43;;;;;;;48.47;23.58;;;9.20;99.90;;;;;;5053970;28;20102;-81
2023/04/23 06:32:09;;;;;;;43.83;24.48;;;9.30;99.90;;;;;;5054146;28;20092;-79
2023/04/23 06:34:35;;;;;;;49.83;25.83;;;9.30;99.90;;;;;;5054005;28;20056;-81
2023/04/23 06:37:00;;;;;;;45.92;24.13;;;9.40;99.90;;;;;;5036012;28;20051;-81
2023/04/23 06:39:26;;;;;;;47.42;23.02;;;9.40;99.90;;;;;;5054535;28;20135;-79
2023/04/23 06:41:52;;;;;;;45.95;22.70;;;9.60;99.90;;;;;;5054335;28;20354;-80
2023/04/23 06:44:17;;;;;;;42.33;23.25;;;9.70;99.90;;;;;;5054252;28;20080;-79
2023/04/23 06:46:43;;;;;;;40.55;23.05;;;9.80;99.90;;;;;;5053700;28;20402;-80
2023/04/23 06:49:09;;;;;;;49.22;25.30;;;9.80;99.90;;;;;;5053628;28;20390;-79
2023/04/23 06:51:34;;;;;;;39.80;23.13;;;10.00;99.90;;;;;;5053928;28;20040;-82
2023/04/23 06:54:00;;;;;;;38.30;21.63;;;10.00;99.90;;;;;;5053522;28;20053;-82
2023/04/23 06:56:26;;;;;;;40.78;22.95;;;10.10;99.90;;;;;;5053542;28;20169;-79
2023/04/23 06:58:52;;;;;;;38.40;21.75;;;10.20;99.90;;;;;;5053479;28;20056;-80
2023/04/23 07:01:18;;;;;;;39.42;22.77;;;10.40;99.90;;;;;;5054028;28;20037;-82
2023/04/23 07:03:47;;;;;;;38.38;22.63;;;10.30;99.90;;;;;;5053546;28;20516;-79
2023/04/23 07:06:16;;;;;;;41.85;22.75;;;10.40;99.90;;;;;;5053468;28;20138;-81
2023/04/23 07:08:43;;;;;;;40.53;22.27;;;10.40;99.90;;;;;;5054210;28;20095;-80
2023/04/23 07:11:09;;;;;;;38.50;20.95;;;10.50;99.90;;;;;;5053422;28;20394;-80
2023/04/23 07:13:35;;;;;;;37.00;22.50;;;10.60;99.90;;;;;;5053345;28;20044;-80
2023/04/23 07:16:01;;;;;;;37.15;21.98;;;10.70;99.90;;;;;;5053405;28;20531;-80
2023/04/23 07:18:26;;;;;;;37.10;22.17;;;10.70;99.90;;;;;;5053826;28;20049;-81
2023/04/23 07:20:52;;;;;;;39.05;21.15;;;10.80;99.90;;;;;;5053247;28;20377;-80
2023/04/23 07:23:18;;;;;;;35.25;20.85;;;10.90;99.90;;;;;;5051721;28;20063;-80
2023/04/23 07:25:44;;;;;;;38.50;21.80;;;10.90;99.90;;;;;;5053152;28;20115;-78
2023/04/23 07:28:09;;;;;;;35.80;20.27;;;11.00;99.90;;;;;;5053770;28;20052;-82
2023/04/23 07:30:35;;;;;;;37.30;20.33;;;11.20;99.90;;;;;;5053753;28;20095;-80
2023/04/23 07:33:01;;;;;;;32.78;19.13;;;11.30;99.90;;;;;;5053115;28;20067;-80
2023/04/23 07:35:26;;;;;;;35.05;20.17;;;11.40;99.90;;;;;;5053144;28;20462;-80
2023/04/23 07:37:54;;;;;;;35.53;21.05;;;11.50;99.90;;;;;;5053176;28;20049;-79
2023/04/23 07:40:24;;;;;;;35.25;20.50;;;11.60;99.90;;;;;;5052685;28;20485;-80
2023/04/23 07:42:50;;;;;;;28.58;18.05;;;11.70;99.90;;;;;;5052822;28;20107;-76
2023/04/23 07:45:17;;;;;;;33.03;20.35;;;11.70;99.90;;;;;;5035619;28;20119;-77
2023/04/23 07:47:44;;;;;;;33.90;20.45;;;11.70;99.90;;;;;;5053367;28;20049;-80
2023/04/23 07:50:10;;;;;;;29.40;17.67;;;11.70;99.90;;;;;;5052879;28;20052;-75
2023/04/23 07:52:36;;;;;;;30.63;18.90;;;11.70;99.90;;;;;;5052811;28;20048;-74
2023/04/23 07:55:02;;;;;;;32.30;19.35;;;11.50;99.90;;;;;;5019616;28;20075;-74
2023/04/23 07:57:27;;;;;;;26.77;17.83;;;11.50;99.90;;;;;;5051777;28;20048;-75
2023/04/23 07:59:53;;;;;;;26.60;17.63;;;11.40;99.90;;;;;;5052815;28;20041;-72
2023/04/23 08:02:22;;;;;;;26.85;15.80;;;11.40;99.90;;;;;;5053340;28;20127;-74
2023/04/23 08:04:48;;;;;;;28.17;17.67;;;11.30;99.90;;;;;;5035694;28;20106;-73
2023/04/23 08:07:14;;;;;;;28.08;17.23;;;11.30;99.90;;;;;;5052698;28;20053;-74
2023/04/23 08:09:40;;;;;;;30.13;19.13;;;11.40;99.90;;;;;;5052849;28;20123;-75
2023/04/23 08:12:05;;;;;;;26.92;18.10;;;11.60;99.90;;;;;;5052572;28;20041;-78
2023/04/23 08:14:31;;;;;;;25.23;17.08;;;11.90;99.90;;;;;;5056162;28;20045;-74
2023/04/23 08:16:56;;;;;;;25.42;17.17;;;12.10;99.90;;;;;;5056250;28;20094;-74
2023/04/23 08:19:24;;;;;;;24.80;17.77;;;12.30;99.90;;;;;;5055259;28;20103;-75
2023/04/23 08:21:51;;;;;;;28.35;18.33;;;12.30;99.90;;;;;;5055111;28;20048;-75
2023/04/23 08:24:17;;;;;;;27.60;17.65;;;12.50;99.90;;;;;;5056228;28;20068;-76
2023/04/23 08:26:42;;;;;;;26.90;17.88;;;12.60;99.90;;;;;;5054872;28;20045;-74
2023/04/23 08:29:08;;;;;;;26.23;17.77;;;12.70;99.90;;;;;;5056187;28;20123;-74
2023/04/23 08:31:34;;;;;;;22.10;14.98;;;12.70;99.90;;;;;;5056133;28;20374;-76
2023/04/23 08:34:00;;;;;;;25.35;16.00;;;12.70;99.90;;;;;;5038438;28;20045;-74
2023/04/23 08:36:26;;;;;;;26.33;18.50;;;12.60;99.90;;;;;;5056011;28;20086;-76
2023/04/23 08:38:52;;;;;;;25.50;16.58;;;12.70;99.90;;;;;;5038133;28;20124;-74
2023/04/23 08:41:21;;;;;;;25.17;15.52;;;12.80;99.90;;;;;;5055110;28;20041;-77
2023/04/23 08:44:11;;;;;;;24.23;16.15;;;12.90;99.90;;;;;;5038097;28;20534;-76
2023/04/23 08:46:41;;;;;;;21.05;14.25;;;12.90;99.90;;;;;;5053265;28;20060;-77
2023/04/23 08:49:08;;;;;;;25.75;16.63;;;12.90;99.90;;;;;;5056193;28;20048;-74
2023/04/23 08:51:37;;;;;;;23.48;15.02;;;13.00;99.90;;;;;;5054844;28;20076;-73
2023/04/23 08:54:04;;;;;;;20.67;14.05;;;13.10;99.90;;;;;;5054720;28;20145;-73
2023/04/23 08:56:31;;;;;;;22.45;15.48;;;13.20;99.90;;;;;;5055594;28;20049;-76
2023/04/23 08:58:58;;;;;;;23.60;14.80;;;13.20;99.90;;;;;;5055514;28;20048;-76
2023/04/23 09:01:24;;;;;;;20.52;14.43;;;13.40;99.90;;;;;;5055815;28;20045;-74
2023/04/23 09:03:51;;;;;;;19.38;12.93;;;13.50;99.90;;;;;;5055463;28;20055;-78
2023/04/23 09:06:18;;;;;;;19.02;12.93;;;13.60;99.90;;;;;;5055468;28;20048;-74
2023/04/23 09:08:45;;;;;;;16.83;11.73;;;13.60;99.90;;;;;;5055478;28;20124;-75
2023/04/23 09:11:11;;;;;;;19.95;12.70;;;13.70;99.90;;;;;;5054061;28;20048;-76
2023/04/23 09:13:36;;;;;;;18.40;12.80;;;13.80;99.90;;;;;;5054279;28;20056;-79
2023/04/23 09:16:04;;;;;;;16.48;11.90;;;14.00;99.90;;;;;;5054555;28;20106;-77
2023/04/23 09:18:30;;;;;;;18.30;12.68;;;14.10;99.90;;;;;;5038352;28;20060;-75
2023/04/23 09:20:56;;;;;;;15.57;10.93;;;14.20;99.90;;;;;;5054239;28;20546;-76
2023/04/23 09:23:22;;;;;;;14.70;10.82;;;14.30;99.90;;;;;;5038031;28;20045;-74
2023/04/23 09:25:48;;;;;;;14.68;9.68;;;14.40;99.90;;;;;;5054784;28;20055;-75
2023/04/23 09:28:14;;;;;;;13.00;9.40;;;14.50;99.90;;;;;;5055036;28;20128;-75
2023/04/23 09:30:44;;;;;;;12.00;8.63;;;14.50;99.90;;;;;;5055058;28;20087;-75
2023/04/23 09:33:11;;;;;;;13.48;9.43;;;14.50;99.90;;;;;;5053891;28;20109;-75
2023/04/23 09:35:37;;;;;;;11.95;8.73;;;14.50;99.90;;;;;;5053972;28;20520;-74
2023/04/23 09:38:06;;;;;;;11.95;8.85;;;14.60;99.90;;;;;;5053910;28;20073;-78
2023/04/23 09:40:32;;;;;;;14.85;9.27;;;14.70;99.90;;;;;;5054200;28;20080;-75
2023/04/23 09:42:58;;;;;;;14.00;8.15;;;14.90;99.90;;;;;;5053537;28;20426;-78
2023/04/23 09:45:24;;;;;;;13.18;6.40;;;15.10;99.90;;;;;;5054797;28;20041;-76
2023/04/23 09:47:52;;;;;;;10.93;6.40;;;15.20;99.90;;;;;;5053435;28;20398;-76
2023/04/23 09:50:35;;;;;;;11.60;6.97;;;15.20;99.90;;;;;;5053537;28;20393;-76
2023/04/23 09:53:01;;;;;;;9.18;5.38;;;15.00;99.90;;;;;;5053713;28;20044;-75
2023/04/23 09:55:39;;;;;;;8.15;5.93;;;15.00;99.90;;;;;;5037124;28;20156;-77
2023/04/23 09:58:13;;;;;;;11.05;6.10;;;15.10;99.90;;;;;;5055042;28;20122;-75
2023/04/23 10:00:39;;;;;;;9.10;4.53;;;15.10;99.90;;;;;;5054424;28;20033;-74
2023/04/23 10:03:07;;;;;;;8.63;5.50;;;15.20;99.90;;;;;;5054264;28;20374;-77
2023/04/23 10:05:40;;;;;;;8.07;5.07;;;15.60;99.90;;;;;;5054291;28;20056;-78
2023/04/23 10:08:06;;;;;;;7.75;4.88;;;15.90;99.90;;;;;;5037561;28;20057;-74
2023/04/23 10:10:34;;;;;;;8.63;4.50;;;16.00;99.90;;;;;;5054786;28;20095;-76
2023/04/23 10:13:00;;;;;;;7.30;4.53;;;15.90;99.90;;;;;;5053183;28;20072;-75
2023/04/23 10:15:26;;;;;;;7.97;5.38;;;15.90;99.90;;;;;;5054156;28;20180;-75
2023/04/23 10:17:54;;;;;;;7.40;4.45;;;16.20;99.90;;;;;;5052845;28;20132;-75
2023/04/23 10:20:21;;;;;;;6.28;4.55;;;16.40;99.90;;;;;;5054799;28;20369;-76
2023/04/23 10:22:48;;;;;;;8.07;4.65;;;16.30;99.90;;;;;;5052878;28;20048;-74
2023/04/23 10:25:14;;;;;;;7.68;4.68;;;16.10;99.90;;;;;;5053371;28;20421;-74
2023/04/23 10:27:43;;;;;;;6.93;4.30;;;16.10;99.90;;;;;;5053975;28;20053;-75
2023/04/23 10:30:12;;;;;;;6.47;3.95;;;16.00;99.90;;;;;;5054861;28;20033;-74
2023/04/23 10:32:38;;;;;;;5.47;4.30;;;16.00;99.90;;;;;;5053822;28;20084;-73
2023/04/23 10:35:05;;;;;;;9.30;4.38;;;16.20;99.90;;;;;;5036646;28;20052;-74
2023/04/23 10:37:32;;;;;;;7.57;3.40;;;16.30;99.90;;;;;;5053602;28;20055;-72
2023/04/23 10:40:06;;;;;;;5.38;3.70;;;16.20;99.90;;;;;;5052729;28;20098;-74
2023/04/23 10:42:32;;;;;;;5.07;3.20;;;16.10;99.90;;;;;;5052873;28;20398;-75
2023/04/23 10:44:58;;;;;;;6.38;3.50;;;16.20;99.90;;;;;;5052699;28;20040;-76
2023/04/23 10:47:24;;;;;;;5.18;3.10;;;16.40;99.90;;;;;;5052649;28;20052;-78
2023/04/23 10:49:50;;;;;;;7.07;3.80;;;16.60;99.90;;;;;;5053813;28;20095;-76
2023/04/23 10:52:17;;;;;;;5.20;3.40;;;16.50;99.90;;;;;;5036178;28;20053;-72
2023/04/23 10:54:48;;;;;;;4.45;2.58;;;16.50;99.90;;;;;;5054285;28;20075;-73
2023/04/23 10:57:14;;;;;;;5.38;2.92;;;16.50;99.90;;;;;;5053537;28;20127;-75
2023/04/23 10:59:55;;;;;;;3.90;2.47;;;16.70;99.90;;;;;;5053472;28;20124;-72
2023/04/23 11:02:24;;;;;;;3.63;2.15;;;17.00;99.90;;;;;;5052562;28;20569;-72
2023/04/23 11:04:55;;;;;;;7.25;2.83;;;17.10;99.90;;;;;;5053358;28;20052;-72
2023/04/23 11:07:29;;;;;;;4.07;2.30;;;17.30;99.90;;;;;;5053240;28;20056;-71
2023/04/23 11:09:58;;;;;;;4.03;2.20;;;17.60;99.90;;;;;;5054035;28;20055;-72
2023/04/23 11:12:27;;;;;;;4.20;2.35;;;17.70;99.90;;;;;;5053214;28;20111;-73
2023/04/23 11:14:54;;;;;;;4.57;2.25;;;17.60;99.90;;;;;;5053590;28;20045;-71
2023/04/23 11:17:32;;;;;;;5.38;2.35;;;17.30;99.90;;;;;;5053512;28;20370;-76
2023/04/23 11:20:22;;;;;;;4.10;2.15;;;17.30;99.90;;;;;;5053274;28;20474;-74
2023/04/23 11:22:49;;;;;;;5.45;2.22;;;17.20;99.90;;;;;;5040750;28;20044;-75
2023/04/23 11:25:20;;;;;;;3.55;1.88;;;17.00;99.90;;;;;;5054016;28;20088;-76
2023/04/23 11:27:47;;;;;;;4.60;2.20;;;17.20;99.90;;;;;;5052203;28;20482;-73
2023/04/23 11:30:17;;;;;;;3.72;1.83;;;17.30;99.90;;;;;;5053043;28;20041;-75
2023/04/23 11:32:46;;;;;;;3.88;1.50;;;17.30;99.90;;;;;;5052428;28;20092;-75
2023/04/23 11:35:17;;;;;;;3.80;1.58;;;17.20;99.90;;;;;;5051799;28;20045;-72
2023/04/23 11:37:44;;;;;;;3.90;1.73;;;17.00;99.90;;;;;;5053071;28;20064;-73
2023/04/23 11:40:13;;;;;;;2.55;1.50;;;16.90;99.90;;;;;;5053034;28;20398;-73
2023/04/23 11:42:46;;;;;;;2.20;1.10;;;17.00;99.90;;;;;;5053883;28;20052;-72
2023/04/23 11:45:26;;;;;;;4.70;1.55;;;17.00;99.90;;;;;;5052680;28;20494;-71
2023/04/23 11:47:55;;;;;;;3.58;1.52;;;16.80;99.90;;;;;;5053968;28;20049;-73
2023/04/23 11:50:26;;;;;;;2.97;1.60;;;16.70;99.90;;;;;;5056903;28;20052;-71
2023/04/23 11:52:53;;;;;;;4.80;1.60;;;16.90;99.90;;;;;;5057108;28;20076;-73
2023/04/23 11:55:19;;;;;;;2.47;1.20;;;17.10;99.90;;;;;;5057399;28;20045;-72
2023/04/23 11:57:50;;;;;;;3.70;1.33;;;17.20;99.90;;;;;;5056479;28;20126;-74
2023/04/23 12:00:17;;;;;;;3.40;1.30;;;17.50;99.90;;;;;;5056811;28;20053;-74
2023/04/23 12:02:53;;;;;;;2.55;1.15;;;17.60;99.90;;;;;;5056703;28;20099;-73
2023/04/23 12:05:26;;;;;;;4.03;1.58;;;17.60;99.90;;;;;;5056228;28;20048;-76
2023/04/23 12:07:52;;;;;;;3.80;1.45;;;17.50;99.90;;;;;;5056646;28;20111;-73
2023/04/23 12:10:20;;;;;;;3.85;1.40;;;17.80;99.90;;;;;;5057090;28;20351;-75
2023/04/23 12:12:52;;;;;;;3.05;1.77;;;18.20;99.90;;;;;;5056564;28;20103;-73
2023/04/23 12:15:19;;;;;;;2.88;1.30;;;18.20;99.90;;;;;;5056258;28;20045;-73
2023/04/23 12:18:07;;;;;;;3.72;1.10;;;18.30;99.90;;;;;;5055613;28;20124;-75
2023/04/23 12:20:33;;;;;;;2.88;1.40;;;18.40;99.90;;;;;;5055368;28;20044;-75
2023/04/23 12:23:04;;;;;;;2.53;1.30;;;18.40;99.90;;;;;;5056293;28;20444;-73
2023/04/23 12:25:30;;;;;;;3.38;1.40;;;18.50;99.90;;;;;;5054994;28;20482;-72
2023/04/23 12:28:02;;;;;;;2.80;1.27;;;18.70;99.90;;;;;;5056140;28;20049;-75
2023/04/23 12:30:33;;;;;;;3.33;1.20;;;18.80;99.90;;;;;;5055838;28;20053;-75
2023/04/23 12:33:03;;;;;;;2.60;0.90;;;18.80;99.90;;;;;;5056006;28;20088;-76
2023/04/23 12:35:52;;;;;;;2.75;1.23;;;19.00;99.90;;;;;;5038321;28;20139;-74
2023/04/23 12:38:24;;;;;;;4.03;1.15;;;19.10;99.90;;;;;;5043179;28;20056;-76